Latest Coastal Weather Observations for Rundle Island

IDQ60701

Issued at 3:55 am EST Monday 21 April 2014 (issued every 10 minutes, with the page automatically refreshed every 10 minutes)

About coastal observations | Map of coastal stations | Coastal observations for QLD | Marine services | Other Formats
Station Details ID: 039322 Name: RUNDLE ISLAND Lat: -23.53 Lon: 151.28 Height: 19.8 m
Data from the previous 72 hours. | See also: Recent months at Rundle Island
Date/Time
EST
Temp

°C
Wind Pressure Rain
since 9am
mm
Weather Cloud Vis
km
Sea
Height
m
Swell
Dir
 
Speed
knots
Gust
knots
hPa Trend Height
m
Period
s
Dir
21/03:30am 24.4 NE 7 9 1017.6 - - - - - - - - -
21/03:00am 24.4 NNE 8 10 1017.4 - - - - - - - - -
21/02:30am 24.5 NNE 8 10 1017.4 - - - - - - - - -
21/02:00am 24.5 NNE 9 12 1017.3 - - - - - - - - -
21/01:30am 24.6 NE 10 12 1017.4 - - - - - - - - -
21/01:00am 24.7 NNE 9 10 1017.6 - - - - - - - - -
21/12:30am 24.6 NNE 9 11 1017.8 - - - - - - - - -
21/12:00am 24.7 NE 9 11 1017.8 - - - - - - - - -
 
Date/Time
EST
Temp

°C
Wind Pressure Rain
since 9am
mm
Weather Cloud Vis
km
Sea
Height
m
Swell
Dir
 
Speed
knots
Gust
knots
hPa Trend Height
m
Period
s
Dir
20/11:30pm 24.8 NNE 8 11 1018.0 - - - - - - - - -
20/11:00pm 24.8 NE 10 12 1018.0 - - - - - - - - -
20/10:30pm 24.8 NE 10 12 1018.1 - - - - - - - - -
20/10:00pm 24.9 NE 9 10 1018.1 - - - - - - - - -
20/09:30pm 24.8 NE 8 10 1018.3 - - - - - - - - -
20/09:00pm 24.8 NE 8 11 1018.1 - - - - - - - - -
20/08:30pm 24.9 NE 9 11 1018.1 - - - - - - - - -
20/08:00pm 24.9 NE 8 10 1017.8 - - - - - - - - -
20/07:30pm 25.1 NE 9 11 1017.6 - - - - - - - - -
20/07:00pm 25.2 NE 9 10 1017.2 - - - - - - - - -
20/06:30pm 25.1 NNE 7 9 1016.9 - - - - - - - - -
20/06:00pm 25.1 NE 7 8 1016.5 - - - - - - - - -
20/05:30pm 25.1 NNE 7 8 1016.4 - - - - - - - - -
20/05:00pm 25.5 NE 6 8 1016.1 - - - - - - - - -
20/04:30pm 25.6 NNE 6 8 1016.0 - - - - - - - - -
20/04:00pm 25.3 NE 6 8 1015.7 - - - - - - - - -
20/03:30pm 25.4 ENE 7 9 1015.6 - - - - - - - - -
20/03:00pm 25.5 ENE 7 8 1015.4 - - - - - - - - -
20/02:30pm 25.7 ENE 6 9 1015.6 - - - - - - - - -
20/02:00pm 25.8 ENE 4 7 1015.7 - - - - - - - - -
20/01:30pm 25.6 E 5 6 1015.9 - - - - - - - - -
20/01:00pm 25.3 E 5 6 1016.0 - - - - - - - - -
20/12:30pm 25.5 E 5 6 1016.4 - - - - - - - - -
20/12:00pm 24.9 ESE 5 6 1016.6 - - - - - - - - -
20/11:30am 24.3 SE 5 6 1017.3 - - - - - - - - -
20/11:00am 24.2 SE 6 7 1017.6 - - - - - - - - -
20/10:30am 24.0 SE 6 7 1018.0 - - - - - - - - -
20/10:00am 23.8 SSE 6 8 1018.0 - - - - - - - - -
20/09:30am 23.8 SSE 5 7 1018.2 - - - - - - - - -
20/09:00am 23.7 S 6 7 1017.8 - - - - - - - - -
20/08:30am 23.1 SSW 5 6 1017.6 - - - - - - - - -
20/08:00am 22.9 SSW 6 6 1017.3 - - - - - - - - -
20/07:30am 23.4 SW 4 5 1017.2 - - - - - - - - -
20/07:00am 23.0 SSW 3 4 1016.7 - - - - - - - - -
20/06:30am 22.7 SSW 3 4 1016.4 - - - - - - - - -
20/06:00am 23.1 S 3 4 1015.9 - - - - - - - - -
20/05:30am 23.0 SSW 3 4 1015.8 - - - - - - - - -
20/05:00am 23.2 S 1 3 1015.3 - - - - - - - - -
20/04:30am 23.0 S 2 3 1015.2 - - - - - - - - -
20/04:00am 23.0 SSW 2 3 1014.9 - - - - - - - - -
20/03:30am 23.1 SW 3 5 1015.1 - - - - - - - - -
20/03:00am 23.2 SW 4 5 1015.1 - - - - - - - - -
20/02:30am 23.2 SW 4 5 1015.2 - - - - - - - - -
20/02:00am 23.0 SW 6 7 1015.2 - - - - - - - - -
20/01:30am 23.6 CALM 0 2 1015.3 - - - - - - - - -
20/01:00am 23.6 WSW 2 2 1015.3 - - - - - - - - -
20/12:30am 23.4 SW 3 4 1015.6 - - - - - - - - -
20/12:00am 23.6 W 2 3 1015.5 - - - - - - - - -
 
Date/Time
EST
Temp

°C
Wind Pressure Rain
since 9am
mm
Weather Cloud Vis
km
Sea
Height
m
Swell
Dir
 
Speed
knots
Gust
knots
hPa Trend Height
m
Period
s
Dir
19/11:30pm 23.4 WSW 4 5 1015.8 - - - - - - - - -
19/11:00pm 24.6 NNW 7 8 1015.9 - - - - - - - - -
19/10:30pm 24.7 NNW 8 9 1016.0 - - - - - - - - -
19/10:00pm 24.8 N 9 10 1015.9 - - - - - - - - -
19/09:30pm 24.9 N 9 11 1016.0 - - - - - - - - -
19/09:00pm 24.9 N 9 11 1015.9 - - - - - - - - -
19/08:30pm 24.9 N 9 10 1015.8 - - - - - - - - -
19/08:00pm 24.9 N 8 10 1015.5 - - - - - - - - -
19/07:30pm 25.1 NNE 8 10 1015.3 - - - - - - - - -
19/07:00pm 25.0 NNE 7 9 1015.0 - - - - - - - - -
19/06:30pm 25.0 NNE 7 9 1014.6 - - - - - - - - -
19/06:00pm 25.0 NNE 7 9 1014.2 - - - - - - - - -
19/05:30pm 25.1 NE 7 8 1014.2 - - - - - - - - -
19/05:00pm 25.3 NE 7 8 1014.0 - - - - - - - - -
19/04:30pm 25.4 NE 7 8 1014.0 - - - - - - - - -
19/04:00pm 25.5 NE 6 7 1013.8 - - - - - - - - -
19/03:30pm 26.0 ENE 6 7 1013.9 - - - - - - - - -
19/03:00pm 26.6 ENE 4 5 1014.0 - - - - - - - - -
19/02:30pm 25.6 E 6 8 1014.2 - - - - - - - - -
19/02:00pm 25.7 E 6 7 1014.4 - - - - - - - - -
19/01:30pm 25.7 ESE 5 6 1014.7 - - - - - - - - -
19/01:00pm 25.7 ESE 5 7 1014.9 - - - - - - - - -
19/12:30pm 25.4 SE 6 7 1015.4 - - - - - - - - -
19/12:00pm 25.3 SE 5 7 1015.7 - - - - - - - - -
19/11:30am 25.0 SSE 4 5 1016.4 - - - - - - - - -
19/11:00am 24.4 SSE 5 6 1016.7 - - - - - - - - -
19/10:30am 24.0 SSE 4 5 1017.0 - - - - - - - - -
19/10:00am 23.6 SE 4 6 1017.2 - - - - - - - - -
19/09:30am 23.4 S 5 7 1017.4 - - - - - - - - -
19/09:00am 23.3 S 5 7 1017.3 - - - - - - - - -
19/08:30am 22.9 SSW 6 7 1017.4 - - - - - - - - -
19/08:00am 22.2 SW 7 8 1017.2 - - - - - - - - -
19/07:30am 21.8 WSW 9 10 1017.0 - - - - - - - - -
19/07:00am 21.6 WSW 10 12 1016.7 - - - - - - - - -
19/06:30am 21.4 WSW 10 11 1016.6 - - - - - - - - -
19/06:00am 21.6 W 8 9 1016.2 - - - - - - - - -
19/05:30am 21.7 WSW 8 10 1016.1 - - - - - - - - -
19/05:00am 21.9 WSW 9 10 1015.9 - - - - - - - - -
19/04:30am 22.0 WSW 9 11 1016.0 - - - - - - - - -
19/04:00am 22.8 W 8 9 1015.6 - - - - - - - - -
19/03:30am 23.4 WNW 9 10 1015.7 - - - - - - - - -
19/03:00am 23.5 WNW 7 8 1015.6 - - - - - - - - -
19/02:30am 24.2 NW 8 10 1015.9 - - - - - - - - -
19/02:00am 24.3 NW 8 10 1015.7 - - - - - - - - -
19/01:30am 24.5 NW 8 10 1016.1 - - - - - - - - -
19/01:00am 24.7 NW 8 9 1016.0 - - - - - - - - -
19/12:30am 24.9 NNW 9 10 1016.2 - - - - - - - - -
19/12:00am 24.9 NNW 9 10 1016.1 - - - - - - - - -
 
Date/Time
EST
Temp

°C
Wind Pressure Rain
since 9am
mm
Weather Cloud Vis
km
Sea
Height
m
Swell
Dir
 
Speed
knots
Gust
knots
hPa Trend Height
m
Period
s
Dir
18/11:30pm 24.9 N 9 10 1016.3 - - - - - - - - -
18/11:00pm 25.0 N 8 9 1016.3 - - - - - - - - -
18/10:30pm 24.9 N 8 9 1016.5 - - - - - - - - -
18/10:00pm 25.0 N 7 8 1016.4 - - - - - - - - -
18/09:30pm 24.9 NNW 7 8 1016.5 - - - - - - - - -
18/09:00pm 25.0 NNW 7 8 1016.3 - - - - - - - - -
18/08:30pm 25.1 NNW 7 8 1016.3 - - - - - - - - -
18/08:00pm 25.1 NNW 9 10 1015.9 - - - - - - - - -
18/07:30pm 25.2 NNW 10 11 1015.7 - - - - - - - - -
18/07:00pm 25.1 NNW 10 11 1015.1 - - - - - - - - -
18/06:30pm 25.2 NNW 10 11 1014.8 - - - - - - - - -
18/06:00pm 25.0 N 8 10 1014.5 - - - - - - - - -
18/05:30pm 25.2 N 9 10 1014.3 - - - - - - - - -
18/05:00pm 25.3 N 9 10 1013.8 - - - - - - - - -
18/04:30pm 25.6 NNE 8 10 1013.7 - - - - - - - - -
18/04:00pm 25.7 NNE 7 9 1013.3 - - - - - - - - -
18/03:30pm 25.3 N 9 10 1013.2 - - - - - - - - -
18/03:00pm 25.7 NNE 8 10 1013.2 - - - - - - - - -
18/02:30pm 25.3 N 7 9 1013.6 - - - - - - - - -
18/02:00pm 25.1 N 7 8 1013.8 - - - - - - - - -
18/01:30pm 25.0 N 6 8 1014.0 - - - - - - - - -
18/01:00pm 24.8 N 7 8 1014.2 - - - - - - - - -
18/12:30pm 24.4 N 7 8 1014.7 - - - - - - - - -
18/12:00pm 24.5 NNW 9 10 1015.0 - - - - - - - - -
18/11:30am 24.8 NNW 9 10 1015.7 - - - - - - - - -
18/11:00am 24.5 NNW 8 10 1016.2 - - - - - - - - -
18/10:30am 26.4 NNE 2 7 1016.7 - - - - - - - - -
18/10:00am 25.7 CALM 0 2 1016.9 - - - - - - - - -
18/09:30am 24.4 CALM 0 2 1017.1 - - - - - - - - -
18/09:00am 23.9 SW 2 4 1017.0 - - - - - - - - -
18/08:30am 24.0 SW 3 4 1017.0 - - - - - - - - -
18/08:00am 23.6 SSW 3 4 1016.8 - - - - - - - - -
18/07:30am 23.0 SW 5 6 1016.7 - - - - - - - - -
18/07:00am 22.7 SW 5 6 1016.5 - - - - - - - - -
18/06:30am 22.4 SW 6 8 1016.5 - - - - - - - - -
18/06:00am 22.5 SW 6 7 1016.3 - - - - - - - - -
18/05:30am 22.4 SW 7 9 1016.2 - - - - - - - - -
18/05:00am 22.5 SW 7 8 1015.9 - - - - - - - - -
18/04:30am 22.6 SW 7 8 1015.9 - - - - - - - - -
18/04:00am 22.9 WSW 7 8 1015.7 - - - - - - - - -

Other Formats:

Comma delimited format used in spreadsheet applications
http://www.bom.gov.au/fwo/IDQ60701/IDQ60701.94378.axf

JavaScript Object Notation format (JSON) in row-major order
http://www.bom.gov.au/fwo/IDQ60701/IDQ60701.94378.json